Time,TemperatureF,DewpointF,PressureIn,WindDirection,WindDirectionDegrees,WindSpeedMPH,WindSpeedGustMPH,Humidity,HourlyPrecipIn,Conditions,Clouds,dailyrainin,SoftwareType,DateUTC
2013-04-04 00:00:00,46.5,31.7,30.32,NE,51,0.0,1.0,56,0.00,,---,0.00,VWS V14.01,2013-04-04 04:00:00,
2013-04-04 00:01:00,46.5,31.7,30.32,NE,51,0.0,1.0,56,0.00,,---,0.00,VWS V14.01,2013-04-04 04:01:00,
2013-04-04 00:02:00,46.5,32.1,30.32,NE,51,0.0,0.0,57,0.00,,---,0.00,VWS V14.01,2013-04-04 04:02:00,
2013-04-04 00:08:00,46.2,32.2,30.32,NE,51,0.0,0.0,58,0.00,,---,0.00,VWS V14.01,2013-04-04 04:08:00,
2013-04-04 00:13:00,46.3,32.3,30.32,NE,51,0.0,0.0,58,0.00,,---,0.00,VWS V14.01,2013-04-04 04:13:00,
2013-04-04 00:18:00,46.0,32.9,30.32,NE,51,0.0,0.0,60,0.00,,---,0.00,VWS V14.01,2013-04-04 04:18:00,
2013-04-04 00:23:00,46.2,31.8,30.32,NE,51,0.0,0.0,57,0.00,,---,0.00,VWS V14.01,2013-04-04 04:23:00,
2013-04-04 00:28:00,46.4,32.0,30.32,NE,51,0.0,1.0,57,0.00,,---,0.00,VWS V14.01,2013-04-04 04:28:00,
2013-04-04 00:34:00,46.4,32.9,30.32,NE,51,0.0,0.0,59,0.00,,---,0.00,VWS V14.01,2013-04-04 04:34:00,
2013-04-04 00:39:00,45.9,33.6,30.31,NE,51,0.0,0.0,62,0.00,,---,0.00,VWS V14.01,2013-04-04 04:39:00,
2013-04-04 00:44:00,45.6,32.5,30.31,NE,51,0.0,0.0,60,0.00,,---,0.00,VWS V14.01,2013-04-04 04:44:00,
2013-04-04 00:49:00,45.8,32.3,30.31,NE,51,0.0,0.0,59,0.00,,---,0.00,VWS V14.01,2013-04-04 04:49:00,
2013-04-04 00:55:00,46.0,32.1,30.31,NE,51,0.0,0.0,58,0.00,,---,0.00,VWS V14.01,2013-04-04 04:55:00,
2013-04-04 01:00:00,46.1,32.2,30.31,NNE,30,0.0,1.0,58,0.00,,---,0.00,VWS V14.01,2013-04-04 05:00:00,
2013-04-04 01:05:00,46.2,31.8,30.31,NE,36,0.0,0.0,57,0.00,,---,0.00,VWS V14.01,2013-04-04 05:05:00,
2013-04-04 01:10:00,46.3,31.9,30.31,NE,38,0.0,1.0,57,0.00,,---,0.00,VWS V14.01,2013-04-04 05:10:00,
2013-04-04 01:15:00,46.8,31.0,30.31,NE,38,0.0,1.0,54,0.00,,---,0.00,VWS V14.01,2013-04-04 05:15:00,
2013-04-04 01:21:00,46.9,32.0,30.31,NE,38,0.0,0.0,56,0.00,,---,0.00,VWS V14.01,2013-04-04 05:21:00,
2013-04-04 01:26:00,46.3,32.3,30.31,NE,38,0.0,0.0,58,0.00,,---,0.00,VWS V14.01,2013-04-04 05:26:00,
2013-04-04 01:31:00,46.1,31.7,30.31,NE,38,0.0,0.0,57,0.00,,---,0.00,VWS V14.01,2013-04-04 05:31:00,
2013-04-04 01:36:00,45.9,32.0,30.31,NE,38,0.0,0.0,58,0.00,,---,0.00,VWS V14.01,2013-04-04 05:36:00,
2013-04-04 01:42:00,45.6,32.5,30.31,NE,38,0.0,0.0,60,0.00,,---,0.00,VWS V14.01,2013-04-04 05:42:00,
2013-04-04 01:47:00,45.4,32.3,30.32,NE,38,0.0,0.0,60,0.00,,---,0.00,VWS V14.01,2013-04-04 05:47:00,
2013-04-04 01:52:00,45.7,32.2,30.31,NE,38,0.0,0.0,59,0.00,,---,0.00,VWS V14.01,2013-04-04 05:52:00,
2013-04-04 01:58:00,45.8,32.7,30.31,NE,38,0.0,0.0,60,0.00,,---,0.00,VWS V14.01,2013-04-04 05:58:00,
2013-04-04 02:03:00,45.5,32.8,30.31,NE,38,0.0,0.0,61,0.00,,---,0.00,VWS V14.01,2013-04-04 06:03:00,
2013-04-04 02:08:00,45.5,32.8,30.31,NE,38,0.0,0.0,61,0.00,,---,0.00,VWS V14.01,2013-04-04 06:08:00,
2013-04-04 02:14:00,45.6,32.9,30.31,NE,38,0.0,0.0,61,0.00,,---,0.00,VWS V14.01,2013-04-04 06:14:00,
2013-04-04 02:19:00,45.6,33.3,30.31,NE,38,0.0,0.0,62,0.00,,---,0.00,VWS V14.01,2013-04-04 06:19:00,
2013-04-04 02:24:00,45.4,33.2,30.31,NE,38,0.0,1.0,62,0.00,,---,0.00,VWS V14.01,2013-04-04 06:24:00,
2013-04-04 02:30:00,45.5,33.2,30.31,NE,38,2.0,2.0,62,0.00,,---,0.00,VWS V14.01,2013-04-04 06:30:00,
2013-04-04 02:35:00,45.6,33.8,30.31,North,11,0.0,2.0,63,0.00,,---,0.00,VWS V14.01,2013-04-04 06:35:00,
2013-04-04 02:40:00,45.7,33.4,30.31,North,11,0.0,2.0,62,0.00,,---,0.00,VWS V14.01,2013-04-04 06:40:00,
2013-04-04 02:45:00,45.7,33.0,30.30,North,11,0.0,2.0,61,0.00,,---,0.00,VWS V14.01,2013-04-04 06:45:00,
2013-04-04 02:52:00,45.8,32.7,30.30,North,11,0.0,1.0,60,0.00,,---,0.00,VWS V14.01,2013-04-04 06:52:00,
2013-04-04 02:57:00,45.9,32.0,30.30,North,11,0.0,1.0,58,0.00,,---,0.00,VWS V14.01,2013-04-04 06:57:00,
2013-04-04 03:02:00,46.1,32.2,30.30,North,11,0.0,0.0,58,0.00,,---,0.00,VWS V14.01,2013-04-04 07:02:00,
2013-04-04 03:07:00,46.4,31.6,30.30,NNW,336,0.0,2.0,56,0.00,,---,0.00,VWS V14.01,2013-04-04 07:07:00,
2013-04-04 03:12:00,46.5,31.2,30.30,NE,56,0.0,2.0,55,0.00,,---,0.00,VWS V14.01,2013-04-04 07:12:00,
2013-04-04 03:17:00,46.6,30.9,30.30,NE,55,0.0,0.0,54,0.00,,---,0.00,VWS V14.01,2013-04-04 07:17:00,
2013-04-04 03:22:00,46.6,31.3,30.30,North,5,0.0,3.0,55,0.00,,---,0.00,VWS V14.01,2013-04-04 07:22:00,
2013-04-04 03:27:00,46.5,31.2,30.30,NNE,32,1.0,3.0,55,0.00,,---,0.00,VWS V14.01,2013-04-04 07:27:00,
2013-04-04 03:33:00,46.5,31.2,30.30,North,5,2.0,2.0,55,0.00,,---,0.00,VWS V14.01,2013-04-04 07:33:00,
2013-04-04 03:38:00,46.8,30.6,30.30,NNE,25,0.0,5.0,53,0.00,,---,0.00,VWS V14.01,2013-04-04 07:38:00,
2013-04-04 03:43:00,46.9,31.1,30.30,NE,54,2.0,5.0,54,0.00,,---,0.00,VWS V14.01,2013-04-04 07:43:00,
2013-04-04 03:48:00,46.7,31.0,30.29,NNE,29,1.0,3.0,54,0.00,,---,0.00,VWS V14.01,2013-04-04 07:48:00,
2013-04-04 03:54:00,46.7,30.5,30.29,North,10,2.0,7.0,53,0.00,,---,0.00,VWS V14.01,2013-04-04 07:54:00,
2013-04-04 04:00:00,46.8,30.1,30.29,ENE,59,1.0,7.0,52,0.00,,---,0.00,VWS V14.01,2013-04-04 08:00:00,
2013-04-04 04:05:00,46.9,30.2,30.30,East,86,0.0,2.0,52,0.00,,---,0.00,VWS V14.01,2013-04-04 08:05:00,
2013-04-04 04:10:00,46.8,30.1,30.29,ENE,77,1.0,3.0,52,0.00,,---,0.00,VWS V14.01,2013-04-04 08:10:00,
2013-04-04 04:15:00,46.8,29.6,30.29,NE,40,1.0,5.0,51,0.00,,---,0.00,VWS V14.01,2013-04-04 08:15:00,
2013-04-04 04:21:00,46.8,29.6,30.30,North,5,4.0,4.0,51,0.00,,---,0.00,VWS V14.01,2013-04-04 08:21:00,
2013-04-04 04:27:00,46.7,29.5,30.30,NE,53,1.0,5.0,51,0.00,,---,0.00,VWS V14.01,2013-04-04 08:27:00,
2013-04-04 04:32:00,46.6,29.5,30.30,East,82,1.0,1.0,51,0.00,,---,0.00,VWS V14.01,2013-04-04 08:32:00,
2013-04-04 04:37:00,46.6,29.0,30.31,NNE,17,3.0,5.0,50,0.00,,---,0.00,VWS V14.01,2013-04-04 08:37:00,
2013-04-04 04:43:00,46.7,28.6,30.30,NNE,27,2.0,5.0,49,0.00,,---,0.00,VWS V14.01,2013-04-04 08:43:00,
2013-04-04 04:48:00,46.7,28.6,30.30,ENE,78,0.0,5.0,49,0.00,,---,0.00,VWS V14.01,2013-04-04 08:48:00,
2013-04-04 04:53:00,46.7,29.1,30.30,East,99,1.0,5.0,50,0.00,,---,0.00,VWS V14.01,2013-04-04 08:53:00,
2013-04-04 04:59:00,46.6,28.0,30.30,ESE,105,0.0,5.0,48,0.00,,---,0.00,VWS V14.01,2013-04-04 08:59:00,
2013-04-04 05:05:00,46.5,28.9,30.30,NNE,24,2.0,2.0,50,0.00,,---,0.00,VWS V14.01,2013-04-04 09:05:00,
2013-04-04 05:10:00,46.4,27.8,30.30,NE,51,0.0,3.0,48,0.00,,---,0.00,VWS V14.01,2013-04-04 09:10:00,
2013-04-04 05:16:00,46.4,27.8,30.30,NNE,16,3.0,5.0,48,0.00,,---,0.00,VWS V14.01,2013-04-04 09:16:00,
2013-04-04 05:21:00,46.3,27.7,30.31,East,96,0.0,3.0,48,0.00,,---,0.00,VWS V14.01,2013-04-04 09:21:00,
2013-04-04 05:26:00,46.3,27.7,30.31,NNE,13,0.0,4.0,48,0.00,,---,0.00,VWS V14.01,2013-04-04 09:26:00,
2013-04-04 05:31:00,46.2,28.6,30.31,ENE,65,1.0,1.0,50,0.00,,---,0.00,VWS V14.01,2013-04-04 09:31:00,
2013-04-04 05:37:00,46.1,27.5,30.31,NNE,20,2.0,5.0,48,0.00,,---,0.00,VWS V14.01,2013-04-04 09:37:00,
2013-04-04 05:42:00,46.1,27.0,30.31,ENE,65,3.0,5.0,47,0.00,,---,0.00,VWS V14.01,2013-04-04 09:42:00,
2013-04-04 05:47:00,46.0,27.4,30.31,NNE,17,0.0,3.0,48,0.00,,---,0.00,VWS V14.01,2013-04-04 09:47:00,
2013-04-04 05:52:00,46.0,26.9,30.31,North,349,2.0,5.0,47,0.00,,---,0.00,VWS V14.01,2013-04-04 09:52:00,
2013-04-04 05:58:00,45.9,25.8,30.31,NNW,346,0.0,5.0,45,0.00,,---,0.00,VWS V14.01,2013-04-04 09:58:00,
2013-04-04 06:03:00,45.9,26.3,30.31,NE,54,0.0,4.0,46,0.00,,---,0.00,VWS V14.01,2013-04-04 10:03:00,
2013-04-04 06:08:00,45.8,26.2,30.31,ESE,113,3.0,4.0,46,0.00,,---,0.00,VWS V14.01,2013-04-04 10:08:00,
2013-04-04 06:14:00,45.6,26.5,30.31,ESE,106,1.0,5.0,47,0.00,,---,0.00,VWS V14.01,2013-04-04 10:14:00,
2013-04-04 06:20:00,45.4,25.9,30.31,ENE,74,0.0,5.0,46,0.00,,---,0.00,VWS V14.01,2013-04-04 10:20:00,
2013-04-04 06:25:00,45.4,24.8,30.32,NNE,21,1.0,6.0,44,0.00,,---,0.00,VWS V14.01,2013-04-04 10:25:00,
2013-04-04 06:30:00,45.3,25.2,30.31,NW,324,1.0,6.0,45,0.00,,---,0.00,VWS V14.01,2013-04-04 10:30:00,
2013-04-04 06:36:00,45.3,25.2,30.32,NNE,24,2.0,4.0,45,0.00,,---,0.00,VWS V14.01,2013-04-04 10:36:00,
2013-04-04 06:41:00,45.1,25.6,30.31,NE,44,0.0,7.0,46,0.00,,---,0.00,VWS V14.01,2013-04-04 10:41:00,
2013-04-04 06:47:00,44.7,26.7,30.31,East,83,1.0,3.0,49,0.00,,---,0.00,VWS V14.01,2013-04-04 10:47:00,
2013-04-04 06:52:00,44.5,26.5,30.31,ENE,69,1.0,4.0,49,0.00,,---,0.00,VWS V14.01,2013-04-04 10:52:00,
2013-04-04 06:58:00,44.5,26.5,30.31,East,84,0.0,6.0,49,0.00,,---,0.00,VWS V14.01,2013-04-04 10:58:00,
2013-04-04 07:03:00,44.4,26.9,30.32,North,9,4.0,7.0,50,0.00,,---,0.00,VWS V14.01,2013-04-04 11:03:00,
2013-04-04 07:08:00,44.2,27.7,30.32,ENE,76,2.0,9.0,52,0.00,,---,0.00,VWS V14.01,2013-04-04 11:08:00,
2013-04-04 07:13:00,43.8,27.3,30.32,North,9,3.0,9.0,52,0.00,,---,0.00,VWS V14.01,2013-04-04 11:13:00,
2013-04-04 07:19:00,43.6,27.6,30.32,North,5,0.0,3.0,53,0.00,,---,0.00,VWS V14.01,2013-04-04 11:19:00,
2013-04-04 07:24:00,43.5,28.0,30.32,NE,53,1.0,3.0,54,0.00,,---,0.00,VWS V14.01,2013-04-04 11:24:00,
2013-04-04 07:30:00,43.4,27.4,30.33,ESE,109,0.0,4.0,53,0.00,,---,0.00,VWS V14.01,2013-04-04 11:30:00,
2013-04-04 07:35:00,43.4,27.9,30.33,ESE,112,1.0,8.0,54,0.00,,---,0.00,VWS V14.01,2013-04-04 11:35:00,
2013-04-04 07:40:00,43.3,27.8,30.33,NNE,23,0.0,10.0,54,0.00,,---,0.00,VWS V14.01,2013-04-04 11:40:00,
2013-04-04 07:46:00,43.1,28.5,30.33,WSW,238,3.0,10.0,56,0.00,,---,0.00,VWS V14.01,2013-04-04 11:46:00,
2013-04-04 07:51:00,42.7,28.5,30.33,NNE,28,0.0,7.0,57,0.00,,---,0.00,VWS V14.01,2013-04-04 11:51:00,
2013-04-04 07:56:00,42.3,29.8,30.33,NNE,22,2.0,7.0,61,0.00,,---,0.00,VWS V14.01,2013-04-04 11:56:00,
2013-04-04 08:01:00,42.0,30.3,30.33,NE,44,3.0,5.0,63,0.00,,---,0.00,VWS V14.01,2013-04-04 12:01:00,
2013-04-04 08:06:00,41.9,29.9,30.33,NNE,28,2.0,7.0,62,0.00,,---,0.00,VWS V14.01,2013-04-04 12:06:00,
2013-04-04 08:11:00,41.8,30.9,30.33,NNW,331,1.0,7.0,65,0.00,,---,0.00,VWS V14.01,2013-04-04 12:11:00,
2013-04-04 08:16:00,41.7,30.0,30.34,ENE,73,4.0,7.0,63,0.00,,---,0.00,VWS V14.01,2013-04-04 12:16:00,
2013-04-04 08:22:00,41.6,30.3,30.34,NNE,24,5.0,7.0,64,0.00,,---,0.00,VWS V14.01,2013-04-04 12:22:00,
2013-04-04 08:27:00,41.6,30.3,30.34,NNE,31,6.0,7.0,64,0.00,,---,0.00,VWS V14.01,2013-04-04 12:27:00,
2013-04-04 08:32:00,41.6,30.3,30.34,East,97,3.0,7.0,64,0.00,,---,0.00,VWS V14.01,2013-04-04 12:32:00,
2013-04-04 08:38:00,41.6,30.0,30.34,SE,135,1.0,7.0,63,0.00,,---,0.00,VWS V14.01,2013-04-04 12:38:00,
2013-04-04 08:43:00,41.6,30.0,30.33,ESE,112,2.0,9.0,63,0.00,,---,0.00,VWS V14.01,2013-04-04 12:43:00,
2013-04-04 08:48:00,41.5,29.5,30.33,NE,53,5.0,9.0,62,0.00,,---,0.00,VWS V14.01,2013-04-04 12:48:00,
2013-04-04 08:53:00,41.6,29.6,30.33,ESE,119,2.0,9.0,62,0.00,,---,0.00,VWS V14.01,2013-04-04 12:53:00,
2013-04-04 08:59:00,41.6,30.3,30.33,ENE,70,0.0,9.0,64,0.00,,---,0.00,VWS V14.01,2013-04-04 12:59:00,
2013-04-04 09:05:00,41.6,31.1,30.33,East,86,1.0,13.0,66,0.00,,---,0.00,VWS V14.01,2013-04-04 13:05:00,
2013-04-04 09:10:00,41.4,30.9,30.34,SE,131,0.0,13.0,66,0.00,,---,0.00,VWS V14.01,2013-04-04 13:10:00,
2013-04-04 09:15:00,41.3,31.5,30.32,NNE,15,3.0,13.0,68,0.00,,---,0.00,VWS V14.01,2013-04-04 13:15:00,
2013-04-04 09:20:00,41.3,32.6,30.33,NNE,14,2.0,9.0,71,0.01,,---,0.01,VWS V14.01,2013-04-04 13:20:00,
2013-04-04 09:26:00,41.4,33.8,30.33,ENE,73,5.0,9.0,74,0.01,,---,0.01,VWS V14.01,2013-04-04 13:26:00,
2013-04-04 09:30:00,41.6,34.9,30.32,ENE,74,1.0,9.0,77,0.01,,---,0.01,VWS V14.01,2013-04-04 13:30:00,
2013-04-04 09:37:00,41.6,34.6,30.33,NNE,23,2.0,11.0,76,0.01,,---,0.01,VWS V14.01,2013-04-04 13:37:00,
2013-04-04 09:42:00,41.4,34.1,30.33,NNE,30,7.0,11.0,75,0.01,,---,0.01,VWS V14.01,2013-04-04 13:42:00,
2013-04-04 09:47:00,41.3,34.0,30.32,NE,48,2.0,8.0,75,0.01,,---,0.01,VWS V14.01,2013-04-04 13:47:00,
2013-04-04 09:52:00,41.4,34.1,30.32,East,82,6.0,10.0,75,0.01,,---,0.01,VWS V14.01,2013-04-04 13:52:00,
2013-04-04 09:57:00,41.8,34.8,30.31,SE,129,0.0,10.0,76,0.01,,---,0.01,VWS V14.01,2013-04-04 13:57:00,
2013-04-04 10:03:00,42.0,35.3,30.31,ENE,59,7.0,7.0,77,0.01,,---,0.01,VWS V14.01,2013-04-04 14:03:00,
2013-04-04 10:08:00,42.0,35.0,30.31,SE,139,3.0,8.0,76,0.01,,---,0.01,VWS V14.01,2013-04-04 14:08:00,
2013-04-04 10:14:00,42.1,35.1,30.32,NE,51,5.0,8.0,76,0.01,,---,0.01,VWS V14.01,2013-04-04 14:14:00,
2013-04-04 10:20:00,42.0,35.3,30.32,East,99,5.0,9.0,77,0.01,,---,0.01,VWS V14.01,2013-04-04 14:20:00,
2013-04-04 10:25:00,42.0,35.0,30.32,North,355,4.0,9.0,76,0.01,,---,0.01,VWS V14.01,2013-04-04 14:25:00,
2013-04-04 10:30:00,42.3,35.3,30.32,ESE,121,4.0,9.0,76,0.01,,---,0.01,VWS V14.01,2013-04-04 14:30:00,
2013-04-04 10:35:00,42.3,35.3,30.32,East,82,6.0,9.0,76,0.00,,---,0.01,VWS V14.01,2013-04-04 14:35:00,
2013-04-04 10:40:00,42.2,35.5,30.31,North,5,2.0,10.0,77,0.00,,---,0.01,VWS V14.01,2013-04-04 14:40:00,
2013-04-04 10:45:00,42.3,35.6,30.31,East,100,1.0,10.0,77,0.00,,---,0.01,VWS V14.01,2013-04-04 14:45:00,
2013-04-04 10:51:00,42.3,35.6,30.30,ENE,57,1.0,9.0,77,0.00,,---,0.01,VWS V14.01,2013-04-04 14:51:00,
2013-04-04 10:57:00,42.2,35.2,30.30,ESE,106,1.0,9.0,76,0.00,,---,0.01,VWS V14.01,2013-04-04 14:57:00,
2013-04-04 11:02:00,42.1,35.1,30.29,SE,129,1.0,10.0,76,0.00,,---,0.01,VWS V14.01,2013-04-04 15:02:00,
2013-04-04 11:07:00,42.4,36.4,30.29,North,355,5.0,10.0,79,0.00,,---,0.01,VWS V14.01,2013-04-04 15:07:00,
2013-04-04 11:12:00,42.4,36.4,30.28,NNE,23,6.0,10.0,79,0.01,,---,0.02,VWS V14.01,2013-04-04 15:12:00,
2013-04-04 11:18:00,42.4,37.0,30.28,SE,136,2.0,9.0,81,0.01,,---,0.02,VWS V14.01,2013-04-04 15:18:00,
2013-04-04 11:23:00,42.3,36.9,30.28,ESE,113,1.0,9.0,81,0.01,,---,0.02,VWS V14.01,2013-04-04 15:23:00,
2013-04-04 11:28:00,42.2,36.8,30.28,ESE,103,1.0,9.0,81,0.01,,---,0.02,VWS V14.01,2013-04-04 15:28:00,
2013-04-04 11:33:00,42.4,37.0,30.28,NNW,348,7.0,7.0,81,0.01,,---,0.02,VWS V14.01,2013-04-04 15:33:00,
2013-04-04 11:38:00,42.3,36.6,30.28,NE,35,3.0,8.0,80,0.01,,---,0.02,VWS V14.01,2013-04-04 15:38:00,
2013-04-04 11:43:00,42.4,36.7,30.27,NNE,22,3.0,10.0,80,0.01,,---,0.02,VWS V14.01,2013-04-04 15:43:00,
2013-04-04 11:48:00,42.4,36.7,30.27,East,84,5.0,9.0,80,0.01,,---,0.02,VWS V14.01,2013-04-04 15:48:00,
2013-04-04 11:54:00,42.4,36.7,30.27,East,96,3.0,10.0,80,0.01,,---,0.02,VWS V14.01,2013-04-04 15:54:00,
2013-04-04 11:59:00,42.2,36.8,30.27,East,83,6.0,10.0,81,0.01,,---,0.02,VWS V14.01,2013-04-04 15:59:00,
2013-04-04 12:04:00,41.8,36.7,30.27,ENE,65,3.0,6.0,82,0.01,,---,0.02,VWS V14.01,2013-04-04 16:04:00,
2013-04-04 12:10:00,41.7,37.2,30.28,ESE,112,2.0,6.0,84,0.01,,---,0.02,VWS V14.01,2013-04-04 16:10:00,
2013-04-04 12:15:00,41.6,36.8,30.29,ENE,78,2.0,8.0,83,0.01,,---,0.02,VWS V14.01,2013-04-04 16:15:00,
2013-04-04 12:20:00,41.5,36.7,30.29,NNW,330,1.0,3.0,83,0.00,,---,0.02,VWS V14.01,2013-04-04 16:20:00,
2013-04-04 12:25:00,41.4,36.9,30.27,NNE,33,4.0,7.0,84,0.01,,---,0.03,VWS V14.01,2013-04-04 16:25:00,
2013-04-04 12:30:00,41.0,36.8,30.26,SE,132,0.0,7.0,85,0.02,,---,0.04,VWS V14.01,2013-04-04 16:30:00,
2013-04-04 12:36:00,40.7,36.8,30.26,NNE,12,3.0,8.0,86,0.02,,---,0.04,VWS V14.01,2013-04-04 16:36:00,
2013-04-04 12:41:00,40.5,36.9,30.26,ENE,65,3.0,9.0,87,0.03,,---,0.05,VWS V14.01,2013-04-04 16:41:00,
2013-04-04 12:46:00,40.3,37.0,30.25,SSE,148,1.0,4.0,88,0.05,,---,0.07,VWS V14.01,2013-04-04 16:46:00,
2013-04-04 12:52:00,40.1,37.1,30.25,East,84,0.0,7.0,89,0.06,,---,0.08,VWS V14.01,2013-04-04 16:52:00,
2013-04-04 12:57:00,40.0,37.3,30.24,ESE,121,0.0,7.0,90,0.08,,---,0.10,VWS V14.01,2013-04-04 16:57:00,
2013-04-04 13:02:00,40.0,37.6,30.24,NE,42,1.0,4.0,91,0.09,,---,0.11,VWS V14.01,2013-04-04 17:02:00,
2013-04-04 13:07:00,40.0,37.6,30.25,ESE,104,0.0,6.0,91,0.10,,---,0.12,VWS V14.01,2013-04-04 17:07:00,
2013-04-04 13:12:00,39.8,37.4,30.24,East,82,1.0,6.0,91,0.11,,---,0.13,VWS V14.01,2013-04-04 17:12:00,
2013-04-04 13:18:00,39.7,37.3,30.22,NNW,348,1.0,8.0,91,0.12,,---,0.14,VWS V14.01,2013-04-04 17:18:00,
2013-04-04 13:23:00,39.6,37.5,30.22,NE,38,2.0,8.0,92,0.14,,---,0.16,VWS V14.01,2013-04-04 17:23:00,
2013-04-04 13:29:00,39.6,37.5,30.24,North,5,6.0,8.0,92,0.16,,---,0.18,VWS V14.01,2013-04-04 17:29:00,
2013-04-04 13:34:00,39.7,37.6,30.25,NNW,338,2.0,6.0,92,0.15,,---,0.19,VWS V14.01,2013-04-04 17:34:00,
2013-04-04 13:39:00,39.7,37.6,30.24,North,5,2.0,8.0,92,0.17,,---,0.21,VWS V14.01,2013-04-04 17:39:00,
2013-04-04 13:45:00,39.7,37.8,30.22,NNW,338,2.0,8.0,93,0.19,,---,0.23,VWS V14.01,2013-04-04 17:45:00,
2013-04-04 13:50:00,39.6,37.8,30.22,North,355,1.0,9.0,93,0.19,,---,0.25,VWS V14.01,2013-04-04 17:50:00,
2013-04-04 13:55:00,39.7,37.8,30.22,NNE,28,2.0,10.0,93,0.21,,---,0.27,VWS V14.01,2013-04-04 17:55:00,
2013-04-04 14:00:00,39.8,38.0,30.23,NW,306,1.0,10.0,93,0.22,,---,0.28,VWS V14.01,2013-04-04 18:00:00,
2013-04-04 14:06:00,39.8,38.0,30.23,NE,49,1.0,6.0,93,0.18,,---,0.28,VWS V14.01,2013-04-04 18:06:00,
2013-04-04 14:11:00,39.9,38.0,30.22,NNE,32,4.0,7.0,93,0.19,,---,0.29,VWS V14.01,2013-04-04 18:11:00,
2013-04-04 14:16:00,39.9,38.0,30.22,NNE,17,6.0,7.0,93,0.16,,---,0.30,VWS V14.01,2013-04-04 18:16:00,
2013-04-04 14:22:00,39.8,38.0,30.21,ENE,65,3.0,10.0,93,0.18,,---,0.32,VWS V14.01,2013-04-04 18:22:00,
2013-04-04 14:28:00,39.8,38.0,30.22,North,355,1.0,10.0,93,0.19,,---,0.33,VWS V14.01,2013-04-04 18:28:00,
2013-04-04 14:33:00,39.8,38.2,30.21,ENE,64,1.0,6.0,94,0.16,,---,0.34,VWS V14.01,2013-04-04 18:33:00,
2013-04-04 14:39:00,39.8,38.2,30.20,NNW,344,3.0,8.0,94,0.16,,---,0.34,VWS V14.01,2013-04-04 18:39:00,
2013-04-04 14:45:00,39.6,38.0,30.19,NNW,346,6.0,11.0,94,0.17,,---,0.35,VWS V14.01,2013-04-04 18:45:00,
2013-04-04 14:51:00,39.6,38.0,30.19,North,9,5.0,10.0,94,0.12,,---,0.36,VWS V14.01,2013-04-04 18:51:00,
2013-04-04 14:57:00,39.5,37.9,30.19,North,5,2.0,10.0,94,0.12,,---,0.36,VWS V14.01,2013-04-04 18:57:00,
2013-04-04 15:02:00,39.3,37.5,30.17,NNE,24,2.0,7.0,93,0.08,,---,0.36,VWS V14.01,2013-04-04 19:02:00,
2013-04-04 15:07:00,39.3,37.7,30.16,East,96,1.0,11.0,94,0.09,,---,0.37,VWS V14.01,2013-04-04 19:07:00,
2013-04-04 15:13:00,39.3,37.7,30.16,NNE,25,1.0,14.0,94,0.09,,---,0.37,VWS V14.01,2013-04-04 19:13:00,
2013-04-04 15:18:00,39.2,37.6,30.16,ENE,60,1.0,6.0,94,0.08,,---,0.38,VWS V14.01,2013-04-04 19:18:00,
2013-04-04 15:23:00,39.3,37.7,30.16,ENE,71,5.0,9.0,94,0.08,,---,0.38,VWS V14.01,2013-04-04 19:23:00,
2013-04-04 15:29:00,39.3,37.7,30.16,NNE,27,3.0,9.0,94,0.08,,---,0.38,VWS V14.01,2013-04-04 19:29:00,
2013-04-04 15:34:00,39.3,37.7,30.16,East,90,7.0,12.0,94,0.05,,---,0.38,VWS V14.01,2013-04-04 19:34:00,
2013-04-04 15:40:00,39.2,37.6,30.15,NNE,30,4.0,12.0,94,0.05,,---,0.38,VWS V14.01,2013-04-04 19:40:00,
2013-04-04 15:45:00,39.3,37.7,30.15,North,360,1.0,12.0,94,0.05,,---,0.38,VWS V14.01,2013-04-04 19:45:00,
2013-04-04 15:51:00,39.3,37.7,30.15,East,98,2.0,9.0,94,0.04,,---,0.39,VWS V14.01,2013-04-04 19:51:00,
2013-04-04 15:57:00,39.5,37.9,30.14,NE,36,4.0,9.0,94,0.06,,---,0.41,VWS V14.01,2013-04-04 19:57:00,
2013-04-04 16:02:00,39.4,37.8,30.13,North,355,2.0,5.0,94,0.08,,---,0.44,VWS V14.01,2013-04-04 20:02:00,
2013-04-04 16:07:00,39.3,37.7,30.13,North,9,5.0,9.0,94,0.10,,---,0.46,VWS V14.01,2013-04-04 20:07:00,
2013-04-04 16:12:00,39.3,37.7,30.13,North,355,3.0,9.0,94,0.12,,---,0.48,VWS V14.01,2013-04-04 20:12:00,
2013-04-04 16:18:00,39.3,37.7,30.13,ENE,76,0.0,7.0,94,0.12,,---,0.49,VWS V14.01,2013-04-04 20:18:00,
2013-04-04 16:23:00,39.3,37.7,30.13,East,94,5.0,7.0,94,0.13,,---,0.50,VWS V14.01,2013-04-04 20:23:00,
2013-04-04 16:28:00,39.3,37.7,30.12,North,355,7.0,7.0,94,0.14,,---,0.51,VWS V14.01,2013-04-04 20:28:00,
2013-04-04 16:33:00,39.3,37.7,30.12,NNE,15,1.0,7.0,94,0.14,,---,0.52,VWS V14.01,2013-04-04 20:33:00,
2013-04-04 16:39:00,39.3,37.7,30.12,NNE,22,3.0,8.0,94,0.16,,---,0.54,VWS V14.01,2013-04-04 20:39:00,
2013-04-04 16:44:00,39.1,37.5,30.12,NNW,348,6.0,11.0,94,0.17,,---,0.55,VWS V14.01,2013-04-04 20:44:00,
2013-04-04 16:50:00,39.1,37.5,30.12,ENE,59,2.0,8.0,94,0.18,,---,0.56,VWS V14.01,2013-04-04 20:50:00,
2013-04-04 16:57:00,39.1,37.8,30.11,East,82,3.0,8.0,95,0.19,,---,0.57,VWS V14.01,2013-04-04 20:57:00,
2013-04-04 17:02:00,39.0,37.7,30.10,NNW,339,3.0,12.0,95,0.14,,---,0.57,VWS V14.01,2013-04-04 21:02:00,
2013-04-04 17:07:00,38.9,37.6,30.10,NE,49,2.0,12.0,95,0.15,,---,0.58,VWS V14.01,2013-04-04 21:07:00,
2013-04-04 17:12:00,38.8,37.2,30.10,NNE,28,3.0,12.0,94,0.16,,---,0.59,VWS V14.01,2013-04-04 21:12:00,
2013-04-04 17:18:00,38.8,37.2,30.09,SE,137,0.0,8.0,94,0.11,,---,0.59,VWS V14.01,2013-04-04 21:18:00,
2013-04-04 17:23:00,38.8,37.5,30.08,East,82,0.0,12.0,95,0.11,,---,0.59,VWS V14.01,2013-04-04 21:23:00,
2013-04-04 17:28:00,38.8,37.5,30.09,ESE,115,1.0,17.0,95,0.11,,---,0.59,VWS V14.01,2013-04-04 21:28:00,
2013-04-04 17:33:00,38.8,37.5,30.08,North,355,1.0,9.0,95,0.08,,---,0.59,VWS V14.01,2013-04-04 21:33:00,
2013-04-04 17:38:00,38.8,37.5,30.09,ENE,69,2.0,9.0,95,0.09,,---,0.60,VWS V14.01,2013-04-04 21:38:00,
2013-04-04 17:44:00,38.9,37.6,30.10,West,273,1.0,9.0,95,0.10,,---,0.61,VWS V14.01,2013-04-04 21:44:00,
2013-04-04 17:49:00,39.0,37.7,30.10,WNW,296,3.0,6.0,95,0.06,,---,0.61,VWS V14.01,2013-04-04 21:49:00,
2013-04-04 17:55:00,39.0,37.7,30.11,North,5,4.0,8.0,95,0.08,,---,0.63,VWS V14.01,2013-04-04 21:55:00,
2013-04-04 18:00:00,39.0,37.7,30.12,NNW,335,2.0,8.0,95,0.09,,---,0.64,VWS V14.01,2013-04-04 22:00:00,
2013-04-04 18:05:00,39.0,37.7,30.12,North,5,5.0,5.0,95,0.07,,---,0.64,VWS V14.01,2013-04-04 22:05:00,
2013-04-04 18:10:00,39.0,37.7,30.11,NNW,348,2.0,7.0,95,0.10,,---,0.67,VWS V14.01,2013-04-04 22:10:00,
2013-04-04 18:16:00,39.0,37.7,30.11,NE,36,0.0,8.0,95,0.11,,---,0.68,VWS V14.01,2013-04-04 22:16:00,
2013-04-04 18:21:00,38.9,37.6,30.10,NW,317,1.0,7.0,95,0.09,,---,0.68,VWS V14.01,2013-04-04 22:21:00,
2013-04-04 18:26:00,38.9,37.6,30.10,NNW,331,1.0,7.0,95,0.10,,---,0.69,VWS V14.01,2013-04-04 22:26:00,
2013-04-04 18:31:00,38.9,37.6,30.09,NE,45,3.0,5.0,95,0.11,,---,0.70,VWS V14.01,2013-04-04 22:31:00,
2013-04-04 18:36:00,38.9,37.6,30.10,North,9,4.0,8.0,95,0.11,,---,0.70,VWS V14.01,2013-04-04 22:36:00,
2013-04-04 18:42:00,38.9,37.6,30.11,NNW,343,0.0,8.0,95,0.11,,---,0.70,VWS V14.01,2013-04-04 22:42:00,
2013-04-04 18:47:00,38.9,37.6,30.10,NNW,348,0.0,4.0,95,0.11,,---,0.72,VWS V14.01,2013-04-04 22:47:00,
2013-04-04 18:52:00,38.8,37.5,30.10,North,360,3.0,7.0,95,0.12,,---,0.73,VWS V14.01,2013-04-04 22:52:00,
2013-04-04 18:58:00,38.8,37.5,30.10,North,9,2.0,8.0,95,0.12,,---,0.73,VWS V14.01,2013-04-04 22:58:00,
2013-04-04 19:03:00,38.8,37.5,30.10,NW,319,6.0,9.0,95,0.10,,---,0.74,VWS V14.01,2013-04-04 23:03:00,
2013-04-04 19:08:00,38.8,37.5,30.10,NNE,20,3.0,9.0,95,0.10,,---,0.74,VWS V14.01,2013-04-04 23:08:00,
2013-04-04 19:13:00,38.7,37.4,30.09,NE,38,3.0,9.0,95,0.10,,---,0.74,VWS V14.01,2013-04-04 23:13:00,
2013-04-04 19:20:00,38.6,37.3,30.08,NNW,332,0.0,7.0,95,0.07,,---,0.75,VWS V14.01,2013-04-04 23:20:00,
2013-04-04 19:25:00,38.5,37.2,30.07,NNW,338,3.0,9.0,95,0.07,,---,0.75,VWS V14.01,2013-04-04 23:25:00,
2013-04-04 19:30:00,38.4,37.1,30.06,SSE,152,3.0,9.0,95,0.08,,---,0.76,VWS V14.01,2013-04-04 23:30:00,
2013-04-04 19:35:00,38.3,37.0,30.06,East,96,2.0,9.0,95,0.06,,---,0.76,VWS V14.01,2013-04-04 23:35:00,
2013-04-04 19:41:00,38.2,36.9,30.05,East,95,6.0,9.0,95,0.06,,---,0.76,VWS V14.01,2013-04-04 23:41:00,
2013-04-04 19:47:00,38.2,36.9,30.05,NNE,30,4.0,4.0,95,0.06,,---,0.77,VWS V14.01,2013-04-04 23:47:00,
2013-04-04 19:52:00,38.1,36.8,30.06,NNW,348,0.0,12.0,95,0.07,,---,0.78,VWS V14.01,2013-04-04 23:52:00,
2013-04-04 19:57:00,38.0,36.7,30.06,NNW,330,8.0,12.0,95,0.07,,---,0.78,VWS V14.01,2013-04-04 23:57:00,
2013-04-04 20:02:00,38.0,36.7,30.07,NW,323,2.0,8.0,95,0.05,,---,0.78,VWS V14.01,2013-04-05 00:02:00,
2013-04-04 20:08:00,38.0,36.7,30.07,North,11,1.0,9.0,95,0.06,,---,0.79,VWS V14.01,2013-04-05 00:08:00,
2013-04-04 20:13:00,37.9,36.6,30.07,NW,324,5.0,9.0,95,0.06,,---,0.79,VWS V14.01,2013-04-05 00:13:00,
2013-04-04 20:18:00,37.9,36.6,30.07,NE,36,1.0,8.0,95,0.04,,---,0.79,VWS V14.01,2013-04-05 00:18:00,
2013-04-04 20:23:00,37.9,36.6,30.07,NNE,25,2.0,9.0,95,0.04,,---,0.79,VWS V14.01,2013-04-05 00:23:00,
2013-04-04 20:30:00,37.9,36.6,30.07,NNW,333,2.0,9.0,95,0.05,,---,0.80,VWS V14.01,2013-04-05 00:30:00,
2013-04-04 20:35:00,37.9,36.6,30.07,NNE,17,4.0,8.0,95,0.04,,---,0.80,VWS V14.01,2013-04-05 00:35:00,
2013-04-04 20:40:00,37.9,36.6,30.07,NNE,23,1.0,10.0,95,0.04,,---,0.80,VWS V14.01,2013-04-05 00:40:00,
2013-04-04 20:45:00,37.9,36.6,30.07,North,11,2.0,10.0,95,0.05,,---,0.81,VWS V14.01,2013-04-05 00:45:00,
2013-04-04 20:51:00,37.9,36.6,30.06,NNE,17,1.0,9.0,95,0.05,,---,0.81,VWS V14.01,2013-04-05 00:51:00,
2013-04-04 20:58:00,37.8,36.5,30.06,NW,316,1.0,10.0,95,0.05,,---,0.81,VWS V14.01,2013-04-05 00:58:00,
2013-04-04 21:03:00,37.9,36.6,30.06,North,5,3.0,6.0,95,0.03,,---,0.81,VWS V14.01,2013-04-05 01:03:00,
2013-04-04 21:08:00,37.8,36.5,30.05,ESE,119,0.0,6.0,95,0.03,,---,0.81,VWS V14.01,2013-04-05 01:08:00,
2013-04-04 21:13:00,37.8,36.5,30.05,North,5,1.0,6.0,95,0.03,,---,0.81,VWS V14.01,2013-04-05 01:13:00,
2013-04-04 21:18:00,37.7,36.4,30.05,NNE,25,4.0,7.0,95,0.02,,---,0.81,VWS V14.01,2013-04-05 01:18:00,
2013-04-04 21:23:00,37.7,36.4,30.06,NW,326,4.0,7.0,95,0.02,,---,0.81,VWS V14.01,2013-04-05 01:23:00,
2013-04-04 21:28:00,37.7,36.4,30.06,WNW,300,2.0,8.0,95,0.02,,---,0.81,VWS V14.01,2013-04-05 01:28:00,
2013-04-04 21:34:00,37.7,36.4,30.05,North,350,4.0,9.0,95,0.01,,---,0.81,VWS V14.01,2013-04-05 01:34:00,
2013-04-04 21:39:00,37.7,36.4,30.06,North,355,2.0,9.0,95,0.02,,---,0.82,VWS V14.01,2013-04-05 01:39:00,
2013-04-04 21:44:00,37.7,36.4,30.05,NNW,338,5.0,9.0,95,0.02,,---,0.82,VWS V14.01,2013-04-05 01:44:00,
2013-04-04 21:49:00,37.7,36.4,30.05,North,350,2.0,9.0,95,0.01,,---,0.82,VWS V14.01,2013-04-05 01:49:00,
2013-04-04 21:54:00,37.7,36.4,30.05,NE,36,1.0,9.0,95,0.01,,---,0.82,VWS V14.01,2013-04-05 01:54:00,
2013-04-04 22:00:00,37.6,36.3,30.05,North,5,3.0,9.0,95,0.01,,---,0.82,VWS V14.01,2013-04-05 02:00:00,
2013-04-04 22:05:00,37.6,36.3,30.05,NNE,17,0.0,8.0,95,0.01,,---,0.82,VWS V14.01,2013-04-05 02:05:00,
2013-04-04 22:10:00,37.7,36.4,30.05,NNW,340,2.0,12.0,95,0.01,,---,0.82,VWS V14.01,2013-04-05 02:10:00,
2013-04-04 22:15:00,37.6,36.3,30.05,NE,40,5.0,12.0,95,0.01,,---,0.82,VWS V14.01,2013-04-05 02:15:00,
2013-04-04 22:20:00,37.6,36.3,30.05,East,82,7.0,7.0,95,0.01,,---,0.82,VWS V14.01,2013-04-05 02:20:00,
2013-04-04 22:26:00,37.6,36.3,30.05,North,355,4.0,7.0,95,0.01,,---,0.82,VWS V14.01,2013-04-05 02:26:00,
2013-04-04 22:31:00,37.6,36.3,30.05,NNW,333,2.0,2.0,95,0.01,,---,0.82,VWS V14.01,2013-04-05 02:31:00,
2013-04-04 22:37:00,37.6,36.3,30.05,NW,324,8.0,10.0,95,0.01,,---,0.82,VWS V14.01,2013-04-05 02:37:00,
2013-04-04 22:42:00,37.6,36.3,30.04,NE,55,0.0,10.0,95,0.01,,---,0.82,VWS V14.01,2013-04-05 02:42:00,
2013-04-04 22:47:00,37.6,36.3,30.04,North,360,3.0,5.0,95,0.00,,---,0.82,VWS V14.01,2013-04-05 02:47:00,
2013-04-04 22:53:00,37.6,36.3,30.04,North,360,0.0,7.0,95,0.00,,---,0.82,VWS V14.01,2013-04-05 02:53:00,
2013-04-04 22:58:00,37.6,36.3,30.04,North,349,1.0,8.0,95,0.00,,---,0.82,VWS V14.01,2013-04-05 02:58:00,
2013-04-04 23:04:00,37.5,36.2,30.03,NNE,14,5.0,7.0,95,0.00,,---,0.82,VWS V14.01,2013-04-05 03:04:00,
2013-04-04 23:10:00,37.5,36.2,30.03,NW,305,3.0,7.0,95,0.00,,---,0.82,VWS V14.01,2013-04-05 03:10:00,
2013-04-04 23:15:00,37.5,36.2,30.03,NNW,331,4.0,7.0,95,0.00,,---,0.82,VWS V14.01,2013-04-05 03:15:00,
2013-04-04 23:20:00,37.5,36.2,30.02,ESE,111,5.0,8.0,95,0.00,,---,0.82,VWS V14.01,2013-04-05 03:20:00,
2013-04-04 23:26:00,37.5,36.2,30.02,NE,50,2.0,8.0,95,0.00,,---,0.82,VWS V14.01,2013-04-05 03:26:00,
2013-04-04 23:32:00,37.5,36.2,30.02,North,350,2.0,5.0,95,0.00,,---,0.82,VWS V14.01,2013-04-05 03:32:00,
2013-04-04 23:37:00,37.5,36.2,30.02,NE,40,3.0,7.0,95,0.00,,---,0.82,VWS V14.01,2013-04-05 03:37:00,
2013-04-04 23:43:00,37.5,36.2,30.02,NNE,24,7.0,9.0,95,0.00,,---,0.82,VWS V14.01,2013-04-05 03:43:00,
2013-04-04 23:48:00,37.5,36.2,30.02,NNW,342,3.0,4.0,95,0.00,,---,0.82,VWS V14.01,2013-04-05 03:48:00,
2013-04-04 23:53:00,37.5,36.2,30.02,NNW,337,3.0,9.0,95,0.00,,---,0.82,VWS V14.01,2013-04-05 03:53:00,
2013-04-04 23:58:00,37.5,36.2,30.03,NNW,342,1.0,9.0,95,0.00,,---,0.82,VWS V14.01,2013-04-05 03:58:00,